Time,TemperatureF,DewpointF,PressureIn,WindDirection,WindDirectionDegrees,WindSpeedMPH,WindSpeedGustMPH,Humidity,HourlyPrecipIn,Conditions,Clouds,dailyrainin,SolarRadiationWatts/m^2,SoftwareType,DateUTC
2013-05-14 00:01:00,48.0,38.0,-100.00,SSW,194,4.0,16.0,69,0.00,,,0.15,0.000000,,2013-05-14 06:01:00,
2013-05-14 00:12:00,48.0,38.0,-100.00,SSW,194,4.0,16.0,69,0.00,,,0.15,0.000000,,2013-05-14 06:12:00,
2013-05-14 00:42:00,49.0,36.0,-100.00,SW,217,8.0,22.0,60,0.00,,,0.15,0.000000,,2013-05-14 06:42:00,
2013-05-14 00:52:00,49.0,36.0,-100.00,SW,217,8.0,22.0,60,0.00,,,0.15,0.000000,,2013-05-14 06:52:00,
2013-05-14 01:01:00,49.0,36.0,-100.00,SW,217,8.0,22.0,60,0.00,,,0.15,0.000000,,2013-05-14 07:01:00,
2013-05-14 01:11:00,49.0,36.0,-100.00,SW,217,8.0,22.0,60,0.00,,,0.15,0.000000,,2013-05-14 07:11:00,
2013-05-14 01:42:00,48.0,34.0,-100.00,SW,223,8.0,25.0,59,0.00,,,0.15,0.000000,,2013-05-14 07:42:00,
2013-05-14 01:52:00,48.0,34.0,-100.00,SW,223,8.0,25.0,59,0.00,,,0.15,0.000000,,2013-05-14 07:52:00,
2013-05-14 02:02:00,48.0,34.0,-100.00,SW,223,8.0,25.0,59,0.00,,,0.15,0.000000,,2013-05-14 08:02:00,
2013-05-14 02:11:00,48.0,34.0,-100.00,SW,223,8.0,25.0,59,0.00,,,0.15,0.000000,,2013-05-14 08:11:00,
2013-05-14 02:42:00,44.0,33.0,-100.00,SW,230,5.0,20.0,66,0.00,,,0.15,0.000000,,2013-05-14 08:42:00,
2013-05-14 02:52:00,44.0,33.0,-100.00,SW,230,5.0,20.0,66,0.00,,,0.15,0.000000,,2013-05-14 08:52:00,
2013-05-14 03:01:00,44.0,33.0,-100.00,SW,230,5.0,20.0,66,0.00,,,0.15,0.000000,,2013-05-14 09:01:00,
2013-05-14 03:11:00,44.0,33.0,-100.00,SW,230,5.0,20.0,66,0.00,,,0.15,0.000000,,2013-05-14 09:11:00,
2013-05-14 03:44:00,46.0,32.0,-100.00,SW,217,10.0,26.0,57,0.00,,,0.15,0.000000,,2013-05-14 09:44:00,
2013-05-14 03:54:00,46.0,32.0,-100.00,SW,217,10.0,26.0,57,0.00,,,0.15,0.000000,,2013-05-14 09:54:00,
2013-05-14 04:04:00,46.0,32.0,-100.00,SW,217,10.0,26.0,57,0.00,,,0.15,0.000000,,2013-05-14 10:04:00,
2013-05-14 04:14:00,46.0,32.0,-100.00,SW,217,10.0,26.0,57,0.00,,,0.15,0.000000,,2013-05-14 10:14:00,
2013-05-14 04:33:00,44.0,30.0,-100.00,WSW,240,6.0,17.0,57,0.00,,,0.15,0.000000,,2013-05-14 10:33:00,
2013-05-14 04:42:00,44.0,30.0,-100.00,WSW,240,6.0,17.0,57,0.00,,,0.15,0.000000,,2013-05-14 10:42:00,
2013-05-14 04:52:00,44.0,30.0,-100.00,WSW,240,6.0,17.0,57,0.00,,,0.15,0.000000,,2013-05-14 10:52:00,
2013-05-14 05:02:00,44.0,30.0,-100.00,WSW,240,6.0,17.0,57,0.00,,,0.15,0.000000,,2013-05-14 11:02:00,
2013-05-14 05:11:00,44.0,30.0,-100.00,WSW,240,6.0,17.0,57,0.00,,,0.15,0.000000,,2013-05-14 11:11:00,
2013-05-14 05:32:00,43.0,24.0,-100.00,South,186,4.0,14.0,47,0.00,,,0.15,0.000000,,2013-05-14 11:32:00,
2013-05-14 05:53:00,43.0,24.0,-100.00,South,186,4.0,14.0,47,0.00,,,0.15,0.000000,,2013-05-14 11:53:00,
2013-05-14 06:02:00,43.0,24.0,-100.00,South,186,4.0,14.0,47,0.00,,,0.15,0.000000,,2013-05-14 12:02:00,
2013-05-14 06:42:00,40.0,23.0,-100.00,West,259,3.0,12.0,51,0.00,,,0.15,3.000000,,2013-05-14 12:42:00,
2013-05-14 06:52:00,40.0,23.0,-100.00,West,259,3.0,12.0,51,0.00,,,0.15,3.000000,,2013-05-14 12:52:00,
2013-05-14 07:01:00,40.0,23.0,-100.00,West,259,3.0,12.0,51,0.00,,,0.15,3.000000,,2013-05-14 13:01:00,
2013-05-14 07:11:00,40.0,23.0,-100.00,West,259,3.0,12.0,51,0.00,,,0.15,3.000000,,2013-05-14 13:11:00,
2013-05-14 07:42:00,40.0,28.0,-100.00,South,188,2.0,8.0,63,0.00,,,0.15,40.000000,,2013-05-14 13:42:00,
2013-05-14 07:52:00,40.0,28.0,-100.00,South,188,2.0,8.0,63,0.00,,,0.15,40.000000,,2013-05-14 13:52:00,
2013-05-14 08:01:00,40.0,28.0,-100.00,South,188,2.0,8.0,63,0.00,,,0.15,40.000000,,2013-05-14 14:01:00,
2013-05-14 08:11:00,40.0,28.0,-100.00,South,188,2.0,8.0,63,0.00,,,0.15,40.000000,,2013-05-14 14:11:00,
2013-05-14 08:32:00,45.0,27.0,-100.00,South,176,5.0,10.0,50,0.00,,,0.15,195.000000,,2013-05-14 14:32:00,
2013-05-14 08:42:00,45.0,27.0,-100.00,South,176,5.0,10.0,50,0.00,,,0.15,195.000000,,2013-05-14 14:42:00,
2013-05-14 08:52:00,45.0,27.0,-100.00,South,176,5.0,10.0,50,0.00,,,0.15,195.000000,,2013-05-14 14:52:00,
2013-05-14 09:01:00,45.0,27.0,-100.00,South,176,5.0,10.0,50,0.00,,,0.15,195.000000,,2013-05-14 15:01:00,
2013-05-14 09:11:00,45.0,27.0,-100.00,South,176,5.0,10.0,50,0.00,,,0.15,195.000000,,2013-05-14 15:11:00,
2013-05-14 09:43:00,47.0,27.0,-100.00,SSW,205,5.0,12.0,45,0.00,,,0.15,426.000000,,2013-05-14 15:43:00,
2013-05-14 09:53:00,47.0,27.0,-100.00,SSW,205,5.0,12.0,45,0.00,,,0.15,426.000000,,2013-05-14 15:53:00,
2013-05-14 10:02:00,47.0,27.0,-100.00,SSW,205,5.0,12.0,45,0.00,,,0.15,426.000000,,2013-05-14 16:02:00,
2013-05-14 10:12:00,47.0,27.0,-100.00,SSW,205,5.0,12.0,45,0.00,,,0.15,426.000000,,2013-05-14 16:12:00,
2013-05-14 10:44:00,48.0,27.0,-100.00,SSW,192,6.0,11.0,44,0.00,,,0.15,564.000000,,2013-05-14 16:44:00,
2013-05-14 10:54:00,48.0,27.0,-100.00,SSW,192,6.0,11.0,44,0.00,,,0.15,564.000000,,2013-05-14 16:54:00,
2013-05-14 11:03:00,48.0,27.0,-100.00,SSW,192,6.0,11.0,44,0.00,,,0.15,564.000000,,2013-05-14 17:03:00,
2013-05-14 11:13:00,48.0,27.0,-100.00,SSW,192,6.0,11.0,44,0.00,,,0.15,564.000000,,2013-05-14 17:13:00,
2013-05-14 11:43:00,48.0,27.0,-100.00,SSW,211,6.0,11.0,44,0.00,,,0.15,459.000000,,2013-05-14 17:43:00,
2013-05-14 11:52:00,48.0,27.0,-100.00,SSW,211,6.0,11.0,44,0.00,,,0.15,459.000000,,2013-05-14 17:52:00,
2013-05-14 12:01:00,48.0,27.0,-100.00,SSW,211,6.0,11.0,44,0.00,,,0.15,459.000000,,2013-05-14 18:01:00,
2013-05-14 12:12:00,48.0,27.0,-100.00,SSW,211,6.0,11.0,44,0.00,,,0.15,459.000000,,2013-05-14 18:12:00,
2013-05-14 12:42:00,50.0,27.0,-100.00,SW,230,4.0,10.0,40,0.00,,,0.15,546.000000,,2013-05-14 18:42:00,
2013-05-14 12:52:00,50.0,27.0,-100.00,SW,230,4.0,10.0,40,0.00,,,0.15,546.000000,,2013-05-14 18:52:00,
2013-05-14 13:01:00,50.0,27.0,-100.00,SW,230,4.0,10.0,40,0.00,,,0.15,546.000000,,2013-05-14 19:01:00,
2013-05-14 13:11:00,50.0,27.0,-100.00,SW,230,4.0,10.0,40,0.00,,,0.15,546.000000,,2013-05-14 19:11:00,
2013-05-14 13:42:00,51.0,26.0,-100.00,SSW,210,6.0,11.0,38,0.00,,,0.15,684.000000,,2013-05-14 19:42:00,
2013-05-14 13:52:00,51.0,26.0,-100.00,SSW,210,6.0,11.0,38,0.00,,,0.15,684.000000,,2013-05-14 19:52:00,
2013-05-14 14:02:00,51.0,26.0,-100.00,SSW,210,6.0,11.0,38,0.00,,,0.15,684.000000,,2013-05-14 20:02:00,
2013-05-14 14:11:00,51.0,26.0,-100.00,SSW,210,6.0,11.0,38,0.00,,,0.15,684.000000,,2013-05-14 20:11:00,
2013-05-14 14:44:00,55.0,26.0,-100.00,SW,233,4.0,14.0,32,0.00,,,0.15,932.000000,,2013-05-14 20:44:00,
2013-05-14 14:52:00,55.0,26.0,-100.00,SW,233,4.0,14.0,32,0.00,,,0.15,932.000000,,2013-05-14 20:52:00,
2013-05-14 15:03:00,55.0,26.0,-100.00,SW,233,4.0,14.0,32,0.00,,,0.15,932.000000,,2013-05-14 21:03:00,
2013-05-14 15:12:00,55.0,26.0,-100.00,SW,233,4.0,14.0,32,0.00,,,0.15,932.000000,,2013-05-14 21:12:00,
2013-05-14 15:43:00,56.0,27.0,-100.00,SW,233,7.0,15.0,32,0.00,,,0.15,827.000000,,2013-05-14 21:43:00,
2013-05-14 15:53:00,56.0,27.0,-100.00,SW,233,7.0,15.0,32,0.00,,,0.15,827.000000,,2013-05-14 21:53:00,
2013-05-14 16:03:00,56.0,27.0,-100.00,SW,233,7.0,15.0,32,0.00,,,0.15,827.000000,,2013-05-14 22:03:00,
2013-05-14 16:13:00,56.0,27.0,-100.00,SW,233,7.0,15.0,32,0.00,,,0.15,827.000000,,2013-05-14 22:13:00,
2013-05-14 16:45:00,56.0,25.0,-100.00,NW,308,7.0,17.0,30,0.00,,,0.15,701.000000,,2013-05-14 22:45:00,
2013-05-14 16:54:00,56.0,25.0,-100.00,NW,308,7.0,17.0,30,0.00,,,0.15,701.000000,,2013-05-14 22:54:00,
2013-05-14 17:03:00,56.0,25.0,-100.00,NW,308,7.0,17.0,30,0.00,,,0.15,701.000000,,2013-05-14 23:03:00,
2013-05-14 17:12:00,56.0,25.0,-100.00,NW,308,7.0,17.0,30,0.00,,,0.15,701.000000,,2013-05-14 23:12:00,
2013-05-14 17:44:00,56.0,25.0,-100.00,WSW,251,6.0,14.0,30,0.00,,,-99.99,555.000000,,2013-05-14 23:44:00,
2013-05-14 17:52:00,56.0,25.0,-100.00,WSW,251,6.0,14.0,30,0.00,,,-99.99,555.000000,,2013-05-14 23:52:00,
2013-05-14 18:01:00,56.0,25.0,-100.00,WSW,251,6.0,14.0,30,0.00,,,-99.99,555.000000,,2013-05-15 00:01:00,
2013-05-14 18:11:00,56.0,25.0,-100.00,WSW,251,6.0,14.0,30,0.00,,,-99.99,555.000000,,2013-05-15 00:11:00,
2013-05-14 18:42:00,56.0,24.0,-100.00,SW,230,6.0,12.0,29,0.00,,,0.15,466.000000,,2013-05-15 00:42:00,
2013-05-14 18:52:00,56.0,24.0,-100.00,SW,230,6.0,12.0,29,0.00,,,0.15,466.000000,,2013-05-15 00:52:00,
2013-05-14 19:01:00,56.0,24.0,-100.00,SW,230,6.0,12.0,29,0.00,,,0.15,466.000000,,2013-05-15 01:01:00,
2013-05-14 19:11:00,56.0,24.0,-100.00,SW,230,6.0,12.0,29,0.00,,,0.15,466.000000,,2013-05-15 01:11:00,
2013-05-14 19:32:00,54.0,25.0,-100.00,West,266,4.0,12.0,32,0.00,,,0.02,351.000000,,2013-05-15 01:32:00,
2013-05-14 19:42:00,54.0,25.0,-100.00,West,266,4.0,12.0,32,0.00,,,0.02,351.000000,,2013-05-15 01:42:00,
2013-05-14 19:52:00,54.0,25.0,-100.00,West,266,4.0,12.0,32,0.00,,,0.02,351.000000,,2013-05-15 01:52:00,
2013-05-14 20:01:00,54.0,25.0,-100.00,West,266,4.0,12.0,32,0.00,,,0.02,351.000000,,2013-05-15 02:01:00,
2013-05-14 20:11:00,54.0,25.0,-100.00,West,266,4.0,12.0,32,0.00,,,0.02,351.000000,,2013-05-15 02:11:00,
2013-05-14 20:32:00,54.0,24.0,-100.00,WSW,240,3.0,11.0,31,0.00,,,0.00,249.000000,,2013-05-15 02:32:00,
2013-05-14 20:42:00,54.0,24.0,-100.00,WSW,240,3.0,11.0,31,0.00,,,0.00,249.000000,,2013-05-15 02:42:00,
2013-05-14 20:52:00,54.0,24.0,-100.00,WSW,240,3.0,11.0,31,0.00,,,0.00,249.000000,,2013-05-15 02:52:00,
2013-05-14 21:01:00,54.0,24.0,-100.00,WSW,240,3.0,11.0,31,0.00,,,0.00,249.000000,,2013-05-15 03:01:00,
2013-05-14 21:12:00,54.0,24.0,-100.00,WSW,240,3.0,11.0,31,0.00,,,0.00,249.000000,,2013-05-15 03:12:00,
2013-05-14 21:44:00,43.0,24.0,-100.00,NNW,346,2.0,8.0,46,0.00,,,0.00,40.000000,,2013-05-15 03:44:00,
2013-05-14 21:54:00,43.0,24.0,-100.00,NNW,346,2.0,8.0,46,0.00,,,0.00,40.000000,,2013-05-15 03:54:00,
2013-05-14 22:03:00,43.0,24.0,-100.00,NNW,346,2.0,8.0,46,0.00,,,0.00,40.000000,,2013-05-15 04:03:00,
2013-05-14 22:12:00,43.0,24.0,-100.00,NNW,346,2.0,8.0,46,0.00,,,0.00,40.000000,,2013-05-15 04:12:00,
2013-05-14 22:33:00,34.0,28.0,-100.00,North,351,3.0,4.0,80,0.00,,,0.00,0.000000,,2013-05-15 04:33:00,
2013-05-14 22:43:00,34.0,28.0,-100.00,North,351,3.0,4.0,80,0.00,,,0.00,0.000000,,2013-05-15 04:43:00,
2013-05-14 22:52:00,34.0,28.0,-100.00,North,351,3.0,4.0,80,0.00,,,0.00,0.000000,,2013-05-15 04:52:00,
2013-05-14 23:02:00,34.0,28.0,-100.00,North,351,3.0,4.0,80,0.00,,,0.00,0.000000,,2013-05-15 05:02:00,
2013-05-14 23:42:00,30.0,26.0,-100.00,NNW,345,2.0,5.0,86,0.00,,,0.00,0.000000,,2013-05-15 05:42:00,
2013-05-14 23:52:00,30.0,26.0,-100.00,NNW,345,2.0,5.0,86,0.00,,,0.00,0.000000,,2013-05-15 05:52:00,